Estación Meteorológica Peña el Pijo (Robertgarden) [ 07/23/17 10:55:40 CEST ]

Fecha Hora Presion(HPa) Temp (°C) Humedad % Rocio (°C) Viento ( m/s) Direccion Lluvia 1Hora(mm) Lluvia 24H(mm) LLuvia Total(mm)
2017-Jul-13 01:09:03 1015.600 - - - - WNW     1437.96
2017-Jul-13 02:01:40 1015.500 21.1 38 6.2         1437.96
2017-Jul-13 03:01:28 1015.200 19.3 44 6.7         1437.96
2017-Jul-13 04:01:24 1015.000 18.7 45 6.5         1437.96
2017-Jul-13 05:01:22 1014.800 17.4 50 6.9         1437.96
2017-Jul-13 06:01:20 1014.800 16.5 53 6.9         1437.96
2017-Jul-13 07:01:47 1015.100 15.9 55 6.8         1437.96
2017-Jul-13 08:01:45 1015.300 16.8 57 8.2         1437.96
2017-Jul-13 09:01:36 1015.500 23.2 49 11.9         1437.96
2017-Jul-13 10:08:24 1015.400 - - -         1437.96
2017-Jul-13 11:01:47 1014.800 37.9 28 16.1         1437.96
2017-Jul-13 12:01:33 1014.800 39.9 17 9.7         1437.96
2017-Jul-13 13:01:47 1014.400 40.4 14 7.3 2.3 NW     1437.96
2017-Jul-13 14:01:45 1014.100 37.7 17 8.0         1437.96
2017-Jul-13 15:01:53 1013.800 40.9 13 6.4 0.8 NNE     1437.96
2017-Jul-13 16:01:51 1013.500 42.6 12 6.7 0.9 NNW     1437.96
2017-Jul-13 17:01:37 1013.200 40.4 12 5.0         1437.96
2017-Jul-13 18:01:49 1012.900 40.4 13 6.0         1437.96
2017-Jul-13 19:01:41 1012.500 38.0 22 12.5         1437.96
2017-Jul-13 20:01:37 1012.400 35.3 20 9.0         1437.96
2017-Jul-13 21:01:34 1012.800 30.3 29 10.2         1437.96
2017-Jul-13 22:01:56 1013.000 31.8 19 5.2         1437.96
2017-Jul-13 23:02:00 1013.900 27.9 24 5.2         1437.96

Temperatura Máxima:42°    Temperatura Mínima:
Presión Máxima:1015.600 Hpa    Presión Mínima:1012.400 Hpa


Volver